createdAt,value
2019-03-20T00:00:09.311Z,2.90
2019-03-20T00:02:38.640Z,2.80
2019-03-20T00:05:08.451Z,3.10
2019-03-20T00:07:37.768Z,4.13
2019-03-20T00:10:08.197Z,3.97
2019-03-20T00:12:37.563Z,3.10
2019-03-20T00:15:07.597Z,3.47
2019-03-20T00:17:36.991Z,3.73
2019-03-20T00:20:10.402Z,2.70
2019-03-20T00:22:39.696Z,3.17
2019-03-20T00:25:12.140Z,2.70
2019-03-20T00:27:41.581Z,3.33
2019-03-20T00:30:12.069Z,3.30
2019-03-20T00:32:41.427Z,4.07
2019-03-20T00:35:11.129Z,3.77
2019-03-20T00:37:40.532Z,3.13
2019-03-20T00:40:13.154Z,4.03
2019-03-20T00:42:44.300Z,2.83
2019-03-20T00:45:13.748Z,3.60
2019-03-20T00:47:43.161Z,3.40
2019-03-20T00:50:14.444Z,3.43
2019-03-20T00:52:43.889Z,3.63
2019-03-20T00:55:13.852Z,3.47
2019-03-20T00:57:43.280Z,3.17
2019-03-20T01:00:15.487Z,3.30
2019-03-20T01:02:44.885Z,3.13
2019-03-20T01:05:15.190Z,3.60
2019-03-20T01:07:44.839Z,2.97
2019-03-20T01:10:16.497Z,3.50
2019-03-20T01:12:45.850Z,3.33
2019-03-20T01:15:15.767Z,3.20
2019-03-20T01:17:45.206Z,3.37
2019-03-20T01:20:16.155Z,3.70
2019-03-20T01:22:45.420Z,3.70
2019-03-20T01:25:16.331Z,4.10
2019-03-20T01:27:45.625Z,3.60
2019-03-20T01:30:36.470Z,3.60
2019-03-20T01:33:08.510Z,3.40
2019-03-20T01:35:37.862Z,4.00
2019-03-20T01:38:09.006Z,3.30
2019-03-20T01:40:40.300Z,3.73
2019-03-20T01:43:09.548Z,3.00
2019-03-20T01:45:39.080Z,3.90
2019-03-20T01:48:08.514Z,3.77
2019-03-20T01:50:37.789Z,3.90
2019-03-20T01:53:07.179Z,3.53
2019-03-20T01:55:36.544Z,3.10
2019-03-20T01:58:05.826Z,3.83
2019-03-20T02:00:35.349Z,3.87
2019-03-20T02:03:04.667Z,3.37
2019-03-20T02:05:36.095Z,3.53
2019-03-20T02:08:05.161Z,3.33
2019-03-20T02:10:34.568Z,3.23
2019-03-20T02:13:03.847Z,3.27
2019-03-20T02:15:38.579Z,4.40
2019-03-20T02:18:04.194Z,3.97
2019-03-20T02:20:33.494Z,3.60
2019-03-20T02:23:02.765Z,3.50
2019-03-20T02:25:32.648Z,3.67
2019-03-20T02:28:01.902Z,3.77
2019-03-20T02:30:31.332Z,4.57
2019-03-20T02:33:00.691Z,4.43
2019-03-20T02:35:30.010Z,3.60
2019-03-20T02:37:59.348Z,3.20
2019-03-20T02:40:28.625Z,3.40
2019-03-20T02:42:57.959Z,3.20
2019-03-20T02:45:27.354Z,3.67
2019-03-20T02:47:56.711Z,3.90
2019-03-20T02:50:26.057Z,4.90
2019-03-20T02:52:55.443Z,3.97
2019-03-20T02:55:24.882Z,5.03
2019-03-20T02:57:54.266Z,4.23
2019-03-20T03:00:23.547Z,4.60
2019-03-20T03:02:52.916Z,4.73
2019-03-20T03:05:22.257Z,4.83
2019-03-20T03:07:51.561Z,4.60
2019-03-20T03:10:20.968Z,4.77
2019-03-20T03:12:50.261Z,4.87
2019-03-20T03:15:19.652Z,4.17
2019-03-20T03:17:48.959Z,5.00
2019-03-20T03:20:18.271Z,4.73
2019-03-20T03:22:47.636Z,4.67
2019-03-20T03:25:17.035Z,4.30
2019-03-20T03:27:46.342Z,4.17
2019-03-20T03:30:15.727Z,4.60
2019-03-20T03:32:45.120Z,5.13
2019-03-20T03:35:18.102Z,4.87
2019-03-20T03:37:45.660Z,4.40
2019-03-20T03:40:15.363Z,4.17
2019-03-20T03:42:44.859Z,4.00
2019-03-20T03:45:14.654Z,4.83
2019-03-20T03:47:43.912Z,4.60
2019-03-20T03:50:13.721Z,4.00
2019-03-20T03:52:43.085Z,5.00
2019-03-20T03:55:12.361Z,4.67
2019-03-20T03:57:41.784Z,4.30
2019-03-20T04:00:12.839Z,4.87
2019-03-20T04:02:42.101Z,4.93
2019-03-20T04:05:11.599Z,4.77
2019-03-20T04:07:40.994Z,5.37
2019-03-20T04:10:11.445Z,5.47
2019-03-20T04:12:40.892Z,6.17
2019-03-20T04:15:11.675Z,6.70
2019-03-20T04:17:41.007Z,5.57
2019-03-20T04:20:12.808Z,6.40
2019-03-20T04:22:42.205Z,6.63
2019-03-20T04:25:11.729Z,6.63
2019-03-20T04:27:41.075Z,7.47
2019-03-20T04:30:11.966Z,6.43
2019-03-20T04:32:41.299Z,6.93
2019-03-20T04:35:10.857Z,6.67
2019-03-20T04:37:40.322Z,6.80
2019-03-20T04:40:10.041Z,7.23
2019-03-20T04:42:39.361Z,7.00
2019-03-20T04:45:09.484Z,6.73
2019-03-20T04:47:38.834Z,6.53
2019-03-20T04:50:08.862Z,7.67
2019-03-20T04:52:38.213Z,8.27
2019-03-20T04:55:07.711Z,7.43
2019-03-20T04:57:37.106Z,7.60
2019-03-20T05:00:08.248Z,7.13
2019-03-20T05:02:37.610Z,7.83
2019-03-20T05:05:07.371Z,7.30
2019-03-20T05:07:36.782Z,7.60
2019-03-20T05:10:08.676Z,8.43
2019-03-20T05:12:38.012Z,7.33
2019-03-20T05:15:07.608Z,6.83
2019-03-20T05:17:36.969Z,7.10
2019-03-20T05:20:07.506Z,7.20
2019-03-20T05:22:36.912Z,7.07
2019-03-20T05:25:06.477Z,7.53
2019-03-20T05:27:35.849Z,7.47
2019-03-20T05:30:05.767Z,7.37
2019-03-20T05:32:35.166Z,6.30
2019-03-20T05:35:04.949Z,6.77
2019-03-20T05:37:34.396Z,7.67
2019-03-20T05:40:03.815Z,7.73
2019-03-20T05:42:33.115Z,7.00
2019-03-20T05:45:02.510Z,7.37
2019-03-20T05:47:31.830Z,6.93
2019-03-20T05:50:01.181Z,7.80
2019-03-20T05:52:30.615Z,7.80
2019-03-20T05:55:00.018Z,7.43
2019-03-20T05:57:29.308Z,7.60
2019-03-20T05:59:58.800Z,7.80
2019-03-20T06:02:29.365Z,8.50
2019-03-20T06:04:58.883Z,8.10
2019-03-20T06:07:28.207Z,12.97
2019-03-20T06:09:57.586Z,13.77
2019-03-20T06:12:27.178Z,18.40
2019-03-20T06:14:58.021Z,17.67
2019-03-20T06:17:27.487Z,15.83
2019-03-20T06:19:56.738Z,12.10
2019-03-20T06:22:26.172Z,11.47
2019-03-20T06:24:55.437Z,9.17
2019-03-20T06:27:24.895Z,9.90
2019-03-20T06:29:54.328Z,8.60
2019-03-20T06:32:23.699Z,8.67
2019-03-20T06:34:53.085Z,8.27
2019-03-20T06:37:32.151Z,8.53
2019-03-20T06:39:54.526Z,8.53
2019-03-20T06:42:23.899Z,8.17
2019-03-20T06:44:53.274Z,7.87
2019-03-20T06:47:22.641Z,7.97
2019-03-20T06:49:51.973Z,8.27
2019-03-20T06:52:21.346Z,8.47
2019-03-20T06:54:50.756Z,8.93
2019-03-20T06:57:20.133Z,7.90
2019-03-20T07:00:33.479Z,6.80
2019-03-20T07:03:04.114Z,7.10
2019-03-20T07:05:52.659Z,6.87
2019-03-20T07:08:24.815Z,6.33
2019-03-20T07:11:18.291Z,6.77
2019-03-20T07:13:47.810Z,6.10
2019-03-20T07:16:17.124Z,6.87
2019-03-20T07:18:46.544Z,6.67
2019-03-20T07:21:18.488Z,6.50
2019-03-20T07:23:46.957Z,5.37
2019-03-20T07:26:16.354Z,5.17
2019-03-20T07:28:45.808Z,6.73
2019-03-20T07:31:16.032Z,6.20
2019-03-20T07:33:45.455Z,6.43
2019-03-20T07:36:14.741Z,4.83
2019-03-20T07:38:44.209Z,5.97
2019-03-20T07:41:13.593Z,6.10
2019-03-20T07:43:42.996Z,5.67
2019-03-20T07:46:12.415Z,6.43
2019-03-20T07:48:41.738Z,7.80
2019-03-20T07:51:11.090Z,6.73
2019-03-20T07:53:40.410Z,6.87
2019-03-20T07:56:09.772Z,6.97
2019-03-20T07:58:39.195Z,7.63
2019-03-20T08:01:08.608Z,8.07
2019-03-20T08:03:37.974Z,8.97
2019-03-20T08:06:07.395Z,8.30
2019-03-20T08:08:36.811Z,8.17
2019-03-20T08:11:06.174Z,8.93
2019-03-20T08:13:35.510Z,7.73
2019-03-20T08:16:05.120Z,9.10
2019-03-20T08:18:34.485Z,8.80
2019-03-20T08:21:04.031Z,9.03
2019-03-20T08:23:33.395Z,10.23
2019-03-20T08:26:02.851Z,9.40
2019-03-20T08:28:32.271Z,9.40
2019-03-20T08:31:01.719Z,11.00
2019-03-20T08:33:31.190Z,10.10
2019-03-20T08:36:01.713Z,11.00
2019-03-20T08:38:34.837Z,11.13
2019-03-20T08:41:04.352Z,10.50
2019-03-20T08:43:33.802Z,11.13
2019-03-20T08:46:03.206Z,10.43
2019-03-20T08:48:32.620Z,10.37
2019-03-20T08:51:02.066Z,11.43
2019-03-20T08:53:31.506Z,11.47
2019-03-20T08:56:00.804Z,12.07
2019-03-20T08:58:30.088Z,12.07
2019-03-20T09:00:59.440Z,12.90
2019-03-20T09:03:28.841Z,12.83
2019-03-20T09:05:58.089Z,14.93
2019-03-20T09:08:29.682Z,14.03
2019-03-20T09:10:58.608Z,14.27
2019-03-20T09:13:27.979Z,14.07
2019-03-20T09:15:57.478Z,14.23
2019-03-20T09:18:26.926Z,13.97
2019-03-20T09:20:56.348Z,13.30
2019-03-20T09:23:25.750Z,11.50
2019-03-20T09:25:55.148Z,10.60
2019-03-20T09:28:24.454Z,10.57
2019-03-20T09:30:53.891Z,8.93
2019-03-20T09:33:23.271Z,9.17
2019-03-20T09:35:52.779Z,8.47
2019-03-20T09:38:22.183Z,7.83
2019-03-20T09:40:51.697Z,7.90
2019-03-20T09:43:21.088Z,8.47
2019-03-20T09:45:50.498Z,8.33
2019-03-20T09:48:19.882Z,9.00
2019-03-20T09:50:49.199Z,8.80
2019-03-20T09:53:18.677Z,9.07
2019-03-20T09:55:49.790Z,7.90
2019-03-20T09:58:19.186Z,8.17
2019-03-20T10:00:48.697Z,9.00
2019-03-20T10:03:18.004Z,8.13
2019-03-20T10:05:47.404Z,12.77
2019-03-20T10:08:16.811Z,9.70
2019-03-20T10:10:46.179Z,10.23
2019-03-20T10:13:15.476Z,15.57
2019-03-20T10:15:45.052Z,21.93
2019-03-20T10:18:14.482Z,15.27
2019-03-20T10:20:44.910Z,11.93
2019-03-20T10:23:14.373Z,17.53
2019-03-20T10:25:44.862Z,10.80
2019-03-20T10:28:14.662Z,11.30
2019-03-20T10:30:44.015Z,12.03
2019-03-20T10:33:13.456Z,11.10
2019-03-20T10:35:50.202Z,18.43
2019-03-20T10:38:13.934Z,15.97
2019-03-20T10:40:43.240Z,12.97
2019-03-20T10:43:12.733Z,13.83
2019-03-20T10:45:42.082Z,12.03
2019-03-20T10:48:11.538Z,12.30
2019-03-20T10:50:42.161Z,11.60
2019-03-20T10:53:11.619Z,11.90
2019-03-20T10:55:40.955Z,11.63
2019-03-20T10:58:11.372Z,12.87
2019-03-20T11:00:40.952Z,13.13
2019-03-20T11:03:10.475Z,15.07
2019-03-20T11:05:39.880Z,12.20
2019-03-20T11:08:09.267Z,12.27
2019-03-20T11:10:38.673Z,12.30
2019-03-20T11:13:08.170Z,11.77
2019-03-20T11:15:37.672Z,11.67
2019-03-20T11:18:07.437Z,12.97
2019-03-20T11:20:36.937Z,13.30
2019-03-20T11:23:06.392Z,11.37
2019-03-20T11:25:36.152Z,12.77
2019-03-20T11:28:05.510Z,12.83
2019-03-20T11:30:34.915Z,16.47
2019-03-20T11:33:04.288Z,30.50
2019-03-20T11:35:33.675Z,16.60
2019-03-20T11:38:03.207Z,13.13
2019-03-20T11:40:32.472Z,12.10
2019-03-20T11:43:01.870Z,12.37
2019-03-20T11:45:31.361Z,11.47
2019-03-20T11:48:00.800Z,11.83
2019-03-20T11:50:35.180Z,13.50
2019-03-20T11:53:04.718Z,12.73
2019-03-20T11:55:34.139Z,12.70
2019-03-20T11:58:03.433Z,12.70
2019-03-20T12:00:32.918Z,11.27
2019-03-20T12:03:02.308Z,11.93
2019-03-20T12:05:31.754Z,13.53
2019-03-20T12:08:01.155Z,13.60
2019-03-20T12:10:30.558Z,14.00
2019-03-20T12:13:00.010Z,13.90
2019-03-20T12:15:29.411Z,14.40
2019-03-20T12:17:58.846Z,14.63
2019-03-20T12:20:28.247Z,14.40
2019-03-20T12:22:57.753Z,15.00
2019-03-20T12:25:28.374Z,14.87
2019-03-20T12:27:57.978Z,13.63
2019-03-20T12:30:28.471Z,14.37
2019-03-20T12:32:57.866Z,13.70
2019-03-20T12:35:29.525Z,15.00
2019-03-20T12:37:58.827Z,14.73
2019-03-20T12:40:29.534Z,15.33
2019-03-20T12:42:59.405Z,14.13
2019-03-20T12:45:34.026Z,12.97
2019-03-20T12:48:03.790Z,12.37
2019-03-20T12:50:33.295Z,11.87
2019-03-20T12:53:02.713Z,12.27
2019-03-20T12:55:31.967Z,13.60
2019-03-20T12:58:01.392Z,12.20
2019-03-20T13:00:30.813Z,12.63
2019-03-20T13:03:00.280Z,11.87
2019-03-20T13:05:29.683Z,12.27
2019-03-20T13:08:05.513Z,11.67
2019-03-20T13:10:30.222Z,11.83
2019-03-20T13:12:59.750Z,12.10
2019-03-20T13:15:29.282Z,11.73
2019-03-20T13:17:58.769Z,12.90
2019-03-20T13:20:28.238Z,12.27
2019-03-20T13:23:03.310Z,12.37
2019-03-20T13:25:34.229Z,13.07
2019-03-20T13:28:03.845Z,11.70
2019-03-20T13:30:36.597Z,10.80
2019-03-20T13:33:06.126Z,10.80
2019-03-20T13:35:35.436Z,10.23
2019-03-20T13:38:04.919Z,11.70
2019-03-20T13:40:34.266Z,10.10
2019-03-20T13:43:03.723Z,9.43
2019-03-20T13:45:33.167Z,10.80
2019-03-20T13:48:02.654Z,9.27
2019-03-20T13:50:33.535Z,8.60
2019-03-20T13:53:02.908Z,10.50
2019-03-20T13:55:32.355Z,10.30
2019-03-20T13:58:02.670Z,10.07
2019-03-20T14:00:32.020Z,9.90
2019-03-20T14:03:01.385Z,10.00
2019-03-20T14:05:30.808Z,9.90
2019-03-20T14:08:00.143Z,9.63
2019-03-20T14:10:33.211Z,8.90
2019-03-20T14:13:02.590Z,9.07
2019-03-20T14:15:31.966Z,8.60
2019-03-20T14:18:01.393Z,8.80
2019-03-20T14:20:30.983Z,9.47
2019-03-20T14:23:00.455Z,8.53
2019-03-20T14:25:29.863Z,8.80
2019-03-20T14:27:59.170Z,9.23
2019-03-20T14:30:28.586Z,8.90
2019-03-20T14:32:58.161Z,9.83
2019-03-20T14:35:27.506Z,9.87
2019-03-20T14:37:56.851Z,9.93
2019-03-20T14:40:35.393Z,9.67
2019-03-20T14:42:58.578Z,10.17
2019-03-20T14:45:28.095Z,8.67
2019-03-20T14:47:57.487Z,10.63
2019-03-20T14:50:27.269Z,10.87
2019-03-20T14:52:56.826Z,10.60
2019-03-20T14:55:26.341Z,9.30
2019-03-20T14:57:55.751Z,9.83
2019-03-20T15:00:25.994Z,8.80
2019-03-20T15:02:57.286Z,8.43
2019-03-20T15:05:26.701Z,8.67
2019-03-20T15:07:57.540Z,9.00
2019-03-20T15:10:27.051Z,9.23
2019-03-20T15:12:56.598Z,9.30
2019-03-20T15:15:29.146Z,9.87
2019-03-20T15:17:59.380Z,11.47
2019-03-20T15:20:28.903Z,12.23
2019-03-20T15:22:58.210Z,9.67
2019-03-20T15:25:27.846Z,8.30
2019-03-20T15:27:57.477Z,9.80
2019-03-20T15:30:29.626Z,11.15
2019-03-20T15:32:58.557Z,11.73
2019-03-20T15:35:27.901Z,10.93
2019-03-20T15:37:57.277Z,9.60
2019-03-20T15:40:26.651Z,8.87
2019-03-20T15:42:56.015Z,8.10
2019-03-20T15:45:25.486Z,7.57
2019-03-20T15:47:54.781Z,8.53
2019-03-20T15:50:24.144Z,8.43
2019-03-20T15:52:53.623Z,8.27
2019-03-20T15:55:28.321Z,8.13
2019-03-20T15:57:57.943Z,7.63
2019-03-20T16:00:27.231Z,8.07
2019-03-20T16:03:03.568Z,8.93
2019-03-20T16:05:32.891Z,8.13
2019-03-20T16:08:02.305Z,9.67
2019-03-20T16:10:31.727Z,7.50
2019-03-20T16:13:01.103Z,7.03
2019-03-20T16:15:30.512Z,7.53
2019-03-20T16:17:59.967Z,7.03
2019-03-20T16:20:29.277Z,7.97
2019-03-20T16:22:58.647Z,7.90
2019-03-20T16:25:28.114Z,8.13
2019-03-20T16:27:57.448Z,8.73
2019-03-20T16:30:28.894Z,11.65
2019-03-20T16:33:03.806Z,14.30
2019-03-20T16:35:33.216Z,10.63
2019-03-20T16:38:02.561Z,9.20
2019-03-20T16:40:31.981Z,9.33
2019-03-20T16:43:01.415Z,9.03
2019-03-20T16:45:31.018Z,9.50
2019-03-20T16:48:00.483Z,9.47
2019-03-20T16:50:29.833Z,9.70
2019-03-20T16:52:59.284Z,8.90
2019-03-20T16:55:28.637Z,8.27
2019-03-20T16:57:58.086Z,9.40
2019-03-20T17:00:28.550Z,8.47
2019-03-20T17:02:57.931Z,9.53
2019-03-20T17:05:27.885Z,9.23
2019-03-20T17:07:57.683Z,9.57
2019-03-20T17:10:32.099Z,9.30
2019-03-20T17:13:01.687Z,9.37
2019-03-20T17:15:32.422Z,10.30
2019-03-20T17:18:01.841Z,10.47
2019-03-20T17:20:31.179Z,11.03
2019-03-20T17:23:00.615Z,10.77
2019-03-20T17:25:30.025Z,10.13
2019-03-20T17:27:59.389Z,10.10
2019-03-20T17:30:30.702Z,9.87
2019-03-20T17:33:00.201Z,9.87
2019-03-20T17:35:29.713Z,10.97
2019-03-20T17:37:59.333Z,11.53
2019-03-20T17:40:28.690Z,10.37
2019-03-20T17:42:58.083Z,10.03
2019-03-20T17:45:27.955Z,11.50
2019-03-20T17:47:57.340Z,11.77
2019-03-20T17:50:29.004Z,11.87
2019-03-20T17:53:00.151Z,10.90
2019-03-20T17:55:29.753Z,11.80
2019-03-20T17:57:59.216Z,10.97
2019-03-20T18:00:48.826Z,10.13
2019-03-20T18:03:18.259Z,11.43
2019-03-20T18:05:49.752Z,11.77
2019-03-20T18:08:19.125Z,10.10
2019-03-20T18:10:48.772Z,11.33
2019-03-20T18:13:18.094Z,10.57
2019-03-20T18:15:47.600Z,11.43
2019-03-20T18:18:18.509Z,11.47
2019-03-20T18:20:47.939Z,12.00
2019-03-20T18:23:17.579Z,10.87
2019-03-20T18:25:47.060Z,11.87
2019-03-20T18:28:16.759Z,12.13
2019-03-20T18:30:46.166Z,12.27
2019-03-20T18:33:15.633Z,12.40
2019-03-20T18:35:45.126Z,11.27
2019-03-20T18:38:14.531Z,12.00
2019-03-20T18:40:43.911Z,12.53
2019-03-20T18:43:13.310Z,12.07
2019-03-20T18:45:42.617Z,13.30
2019-03-20T18:48:12.045Z,15.63
2019-03-20T18:50:41.488Z,13.70
2019-03-20T18:53:10.830Z,17.00
2019-03-20T18:55:40.264Z,15.30
2019-03-20T18:58:09.684Z,13.37
2019-03-20T19:00:39.158Z,13.63
2019-03-20T19:03:08.574Z,14.33
2019-03-20T19:05:47.384Z,15.50
2019-03-20T19:08:16.918Z,13.70
2019-03-20T19:10:46.364Z,14.97
2019-03-20T19:13:15.798Z,13.23
2019-03-20T19:15:45.242Z,14.03
2019-03-20T19:18:14.570Z,13.03
2019-03-20T19:20:43.980Z,14.13
2019-03-20T19:23:13.426Z,14.03
2019-03-20T19:25:42.745Z,13.37
2019-03-20T19:28:12.230Z,13.17
2019-03-20T19:30:41.536Z,13.47
2019-03-20T19:33:10.856Z,13.90
2019-03-20T19:35:40.337Z,13.37
2019-03-20T19:38:09.647Z,13.27
2019-03-20T19:40:39.127Z,14.23
2019-03-20T19:43:08.500Z,14.17
2019-03-20T19:45:39.248Z,13.37
2019-03-20T19:48:08.661Z,14.53
2019-03-20T19:50:38.211Z,15.07
2019-03-20T19:53:07.499Z,13.53
2019-03-20T19:55:36.827Z,14.67
2019-03-20T19:58:06.200Z,14.93
2019-03-20T20:00:35.558Z,14.73
2019-03-20T20:03:04.969Z,14.60
2019-03-20T20:05:34.323Z,13.60
2019-03-20T20:08:03.627Z,13.40
2019-03-20T20:10:32.950Z,14.30
2019-03-20T20:13:02.270Z,14.07
2019-03-20T20:15:31.623Z,14.27
2019-03-20T20:18:00.999Z,13.87
2019-03-20T20:20:30.304Z,13.87
2019-03-20T20:22:59.801Z,14.30
2019-03-20T20:25:29.170Z,14.77
2019-03-20T20:27:58.625Z,14.80
2019-03-20T20:30:28.068Z,14.57
2019-03-20T20:32:57.543Z,14.43
2019-03-20T20:35:27.011Z,13.43
2019-03-20T20:37:56.448Z,14.40
2019-03-20T20:40:26.011Z,12.97
2019-03-20T20:42:55.412Z,13.23
2019-03-20T20:45:24.916Z,13.67
2019-03-20T20:47:54.352Z,13.43
2019-03-20T20:50:23.785Z,13.93
2019-03-20T20:52:53.187Z,15.13
2019-03-20T20:55:22.707Z,13.67
2019-03-20T20:57:52.326Z,13.43
2019-03-20T21:00:21.909Z,14.70
2019-03-20T21:02:51.311Z,14.90
2019-03-20T21:05:20.939Z,14.03
2019-03-20T21:07:50.241Z,13.77
2019-03-20T21:10:19.666Z,14.60
2019-03-20T21:12:56.454Z,15.53
2019-03-20T21:15:34.160Z,13.73
2019-03-20T21:18:56.273Z,14.23
2019-03-20T21:21:31.024Z,15.10
2019-03-20T21:24:32.763Z,15.83
2019-03-20T21:27:43.530Z,17.50
2019-03-20T21:30:46.073Z,15.80
2019-03-20T21:33:43.181Z,16.57
2019-03-20T21:36:44.901Z,18.00
2019-03-20T21:39:14.899Z,16.93
2019-03-20T21:42:17.116Z,17.67
2019-03-20T21:45:22.046Z,17.73
2019-03-20T21:47:52.154Z,18.07
2019-03-20T21:51:15.791Z,18.27
2019-03-20T21:54:29.627Z,19.30
2019-03-20T21:57:46.034Z,18.93
2019-03-20T22:00:51.965Z,17.63
2019-03-20T22:03:23.365Z,20.10
2019-03-20T22:06:37.131Z,18.20
2019-03-20T22:09:49.192Z,19.00
2019-03-20T22:12:24.535Z,18.63
2019-03-20T22:15:18.832Z,20.00
2019-03-20T22:18:31.219Z,19.70
2019-03-20T22:21:10.171Z,20.43
2019-03-20T22:24:25.571Z,20.63
2019-03-20T22:27:35.104Z,18.10
2019-03-20T22:30:06.921Z,19.77
2019-03-20T22:33:25.472Z,19.73
2019-03-20T22:36:03.966Z,19.93
2019-03-20T22:39:24.210Z,20.43
2019-03-20T22:42:18.295Z,20.27
2019-03-20T22:45:50.113Z,22.13
2019-03-20T22:48:49.287Z,23.03
2019-03-20T22:51:39.949Z,21.33
2019-03-20T22:54:55.465Z,21.33
2019-03-20T22:57:44.705Z,21.10
2019-03-20T23:00:14.750Z,23.03
2019-03-20T23:02:52.313Z,24.07
2019-03-20T23:05:22.231Z,24.27
2019-03-20T23:07:52.102Z,25.93
2019-03-20T23:10:22.011Z,25.27
2019-03-20T23:12:51.902Z,25.73
2019-03-20T23:15:21.869Z,25.40
2019-03-20T23:17:51.799Z,26.73
2019-03-20T23:20:23.455Z,28.33
2019-03-20T23:22:54.530Z,27.60
2019-03-20T23:46:17.744Z,31.83
2019-03-20T23:52:17.459Z,29.67
2019-03-20T23:54:50.330Z,28.57
2019-03-20T23:57:21.700Z,31.63
2019-03-20T23:59:52.219Z,29.93
